sensor_id;sensor_type;location;lat;lon;timestamp;pressure;altitude;pressure_sealevel;temperature;humidity
56604;BME280;42486;47.478;19.036;2022-07-12T04:37:15;100661.72;;;16.25;56.88
56604;BME280;42486;47.478;19.036;2022-07-12T04:40:18;100655.19;;;16.66;55.12
56604;BME280;42486;47.478;19.036;2022-07-12T04:43:20;100659.69;;;16.93;54.98
56604;BME280;42486;47.478;19.036;2022-07-12T04:46:26;100659.03;;;17.09;53.88
56604;BME280;42486;47.478;19.036;2022-07-12T04:49:31;100658.41;;;18.15;50.99
56604;BME280;42486;47.478;19.036;2022-07-12T04:52:35;100664.03;;;18.38;49.78
56604;BME280;42486;47.478;19.036;2022-07-12T04:55:38;100662.78;;;17.70;51.36
56604;BME280;42486;47.478;19.036;2022-07-12T04:58:42;100655.09;;;17.41;52.28
56604;BME280;42486;47.478;19.036;2022-07-12T05:01:45;100658.94;;;17.47;52.18
56604;BME280;42486;47.478;19.036;2022-07-12T05:04:47;100658.75;;;17.58;52.07
56604;BME280;42486;47.478;19.036;2022-07-12T05:07:50;100663.97;;;17.86;51.26
56604;BME280;42486;47.478;19.036;2022-07-12T05:10:58;100664.69;;;17.78;51.38
56604;BME280;42486;47.478;19.036;2022-07-12T05:14:03;100665.66;;;17.95;51.26
56604;BME280;42486;47.478;19.036;2022-07-12T05:17:06;100670.31;;;18.45;49.98
56604;BME280;42486;47.478;19.036;2022-07-12T05:20:15;100672.09;;;18.62;49.50
56604;BME280;42486;47.478;19.036;2022-07-12T05:23:18;100677.75;;;18.94;48.31
56604;BME280;42486;47.478;19.036;2022-07-12T05:26:22;100673.63;;;18.73;49.58
56604;BME280;42486;47.478;19.036;2022-07-12T05:29:25;100675.94;;;18.42;50.05
56604;BME280;42486;47.478;19.036;2022-07-12T05:32:27;100673.19;;;18.78;49.11
56604;BME280;42486;47.478;19.036;2022-07-12T05:35:32;100676.88;;;18.93;48.68
56604;BME280;42486;47.478;19.036;2022-07-12T05:38:35;100683.69;;;18.69;49.57
56604;BME280;42486;47.478;19.036;2022-07-12T05:41:38;100675.84;;;18.78;49.22
56604;BME280;42486;47.478;19.036;2022-07-12T05:44:50;100670.09;;;18.90;49.29
56604;BME280;42486;47.478;19.036;2022-07-12T05:47:53;100687.59;;;18.57;49.32
56604;BME280;42486;47.478;19.036;2022-07-12T05:50:55;100684.63;;;18.78;48.92
56604;BME280;42486;47.478;19.036;2022-07-12T05:54:18;100685.00;;;18.91;48.43
56604;BME280;42486;47.478;19.036;2022-07-12T05:57:21;100691.50;;;19.05;48.43
56604;BME280;42486;47.478;19.036;2022-07-12T06:00:24;100686.12;;;19.23;47.71
56604;BME280;42486;47.478;19.036;2022-07-12T06:03:27;100690.72;;;19.21;47.54
56604;BME280;42486;47.478;19.036;2022-07-12T06:06:34;100687.97;;;19.31;47.27
56604;BME280;42486;47.478;19.036;2022-07-12T06:09:37;100682.97;;;19.28;47.02
56604;BME280;42486;47.478;19.036;2022-07-12T06:12:46;100681.53;;;19.50;46.63
56604;BME280;42486;47.478;19.036;2022-07-12T06:15:52;100683.56;;;19.89;46.53
56604;BME280;42486;47.478;19.036;2022-07-12T06:18:54;100687.87;;;20.31;45.20
56604;BME280;42486;47.478;19.036;2022-07-12T06:21:57;100682.75;;;19.96;45.74
56604;BME280;42486;47.478;19.036;2022-07-12T06:25:00;100678.94;;;20.07;45.17
56604;BME280;42486;47.478;19.036;2022-07-12T06:28:23;100682.25;;;20.17;45.11
56604;BME280;42486;47.478;19.036;2022-07-12T06:31:26;100672.47;;;20.18;45.40
56604;BME280;42486;47.478;19.036;2022-07-12T06:34:36;100678.25;;;20.38;44.31
56604;BME280;42486;47.478;19.036;2022-07-12T06:37:44;100680.06;;;20.62;44.47
56604;BME280;42486;47.478;19.036;2022-07-12T06:40:54;100681.25;;;20.99;43.58
56604;BME280;42486;47.478;19.036;2022-07-12T06:44:00;100671.03;;;21.50;41.71
56604;BME280;42486;47.478;19.036;2022-07-12T06:47:09;100678.72;;;21.05;42.13
56604;BME280;42486;47.478;19.036;2022-07-12T06:50:14;100685.06;;;20.96;42.20
56604;BME280;42486;47.478;19.036;2022-07-12T06:53:17;100685.69;;;21.06;41.90
56604;BME280;42486;47.478;19.036;2022-07-12T06:56:21;100683.53;;;20.62;43.32
56604;BME280;42486;47.478;19.036;2022-07-12T06:59:23;100681.53;;;20.64;42.95
56604;BME280;42486;47.478;19.036;2022-07-12T07:02:32;100677.41;;;21.01;41.70
56604;BME280;42486;47.478;19.036;2022-07-12T07:05:36;100686.53;;;21.07;41.47
56604;BME280;42486;47.478;19.036;2022-07-12T07:08:43;100684.91;;;21.29;40.86
56604;BME280;42486;47.478;19.036;2022-07-12T07:11:48;100677.31;;;21.57;40.23
56604;BME280;42486;47.478;19.036;2022-07-12T07:14:51;100679.06;;;21.88;39.69
56604;BME280;42486;47.478;19.036;2022-07-12T07:17:55;100672.28;;;21.31;40.25
56604;BME280;42486;47.478;19.036;2022-07-12T07:21:04;100680.13;;;20.93;41.23
